Time;durP1;ratioP1;P1;durP2;ratioP2;P2;SDS_P1;SDS_P2;PMS_P1;PMS_P2;Temp;Humidity;BMP_temperature;BMP_pressure;BME280_temperature;BME280_humidity;BME280_pressure;Samples;Min_cycle;Max_cycle;Signal;HPM_P1;HPM_P2
2021/04/19 00:01:55;;;;;;;32.10;19.80;;;5.40;99.90;;;;;;5007399;28;20478;-85
2021/04/19 00:04:22;;;;;;;30.40;19.95;;;5.40;99.90;;;;;;5010388;28;20127;-85
2021/04/19 00:06:49;;;;;;;28.75;18.00;;;5.40;99.90;;;;;;5013273;28;20072;-86
2021/04/19 00:09:15;;;;;;;30.65;20.25;;;5.40;99.90;;;;;;5013085;28;20103;-86
2021/04/19 00:11:41;;;;;;;30.85;18.67;;;5.40;99.90;;;;;;4988530;28;20056;-86
2021/04/19 00:14:08;;;;;;;37.47;20.60;;;5.40;99.90;;;;;;5010364;28;20396;-86
2021/04/19 00:16:35;;;;;;;30.13;20.67;;;5.40;99.90;;;;;;5011935;28;20041;-85
2021/04/19 00:19:01;;;;;;;32.85;19.65;;;5.30;99.90;;;;;;5009529;28;20074;-85
2021/04/19 00:21:28;;;;;;;36.30;20.63;;;5.30;99.90;;;;;;5005032;28;20491;-85
2021/04/19 00:23:54;;;;;;;31.80;20.42;;;5.20;99.90;;;;;;5007650;28;20140;-86
2021/04/19 00:26:22;;;;;;;35.03;21.50;;;5.20;99.90;;;;;;5010768;28;20049;-86
2021/04/19 00:28:48;;;;;;;34.20;20.77;;;5.10;99.90;;;;;;5013395;28;20109;-84
2021/04/19 00:31:15;;;;;;;33.13;20.73;;;5.10;99.90;;;;;;5011478;28;20137;-86
2021/04/19 00:33:42;;;;;;;32.42;20.73;;;5.00;99.90;;;;;;5009732;28;20053;-84
2021/04/19 00:36:10;;;;;;;35.55;21.92;;;4.90;99.90;;;;;;5011054;28;20038;-86
2021/04/19 00:38:39;;;;;;;31.70;21.13;;;4.80;99.90;;;;;;5012824;28;20152;-86
2021/04/19 00:41:10;;;;;;;33.40;21.08;;;4.70;99.90;;;;;;5014466;28;20042;-86
2021/04/19 00:43:37;;;;;;;34.20;21.40;;;4.60;99.90;;;;;;5011758;28;20141;-85
2021/04/19 00:46:05;;;;;;;37.92;23.90;;;4.40;99.90;;;;;;5005910;28;20060;-85
2021/04/19 00:48:32;;;;;;;36.95;23.75;;;4.30;99.90;;;;;;5013425;28;20046;-85
2021/04/19 00:51:00;;;;;;;37.10;24.33;;;4.30;99.90;;;;;;5007195;28;20105;-85
2021/04/19 00:53:28;;;;;;;40.25;23.52;;;4.30;99.90;;;;;;5012145;28;20046;-86
2021/04/19 00:55:55;;;;;;;41.42;25.13;;;4.30;99.90;;;;;;4997105;28;20129;-86
2021/04/19 00:58:27;;;;;;;40.20;25.17;;;4.30;99.90;;;;;;5007538;28;20046;-85
2021/04/19 01:00:58;;;;;;;45.88;26.42;;;4.30;99.90;;;;;;5013669;28;20402;-84
2021/04/19 01:03:27;;;;;;;38.75;23.52;;;4.30;99.90;;;;;;5002697;28;20129;-84
2021/04/19 01:05:54;;;;;;;40.78;24.60;;;4.30;99.90;;;;;;5011352;28;20060;-84
2021/04/19 01:08:21;;;;;;;40.17;25.25;;;4.30;99.90;;;;;;5010393;28;20149;-84
2021/04/19 01:10:47;;;;;;;39.25;24.80;;;4.30;99.90;;;;;;5007264;28;20042;-84
2021/04/19 01:13:14;;;;;;;38.47;24.52;;;4.30;99.90;;;;;;5012655;28;20084;-84
2021/04/19 01:15:40;;;;;;;40.88;25.77;;;4.30;99.90;;;;;;5008797;28;20137;-84
2021/04/19 01:18:07;;;;;;;43.35;25.70;;;4.30;99.90;;;;;;5005303;28;20148;-84
2021/04/19 01:20:45;;;;;;;41.83;25.27;;;4.30;99.90;;;;;;5012651;28;20332;-84
2021/04/19 01:23:14;;;;;;;42.53;26.10;;;4.30;99.90;;;;;;5012322;28;20229;-84
2021/04/19 01:25:40;;;;;;;42.95;26.70;;;4.30;99.90;;;;;;5009712;28;20116;-84
2021/04/19 01:28:07;;;;;;;42.72;25.02;;;4.30;99.90;;;;;;5010303;28;20062;-84
2021/04/19 01:30:41;;;;;;;40.80;24.30;;;4.40;99.90;;;;;;5012217;28;20137;-84
2021/04/19 01:33:08;;;;;;;41.92;25.83;;;4.40;99.90;;;;;;5010053;28;20448;-84
2021/04/19 01:35:35;;;;;;;36.88;24.40;;;4.30;99.90;;;;;;5011181;28;20112;-84
2021/04/19 01:38:04;;;;;;;40.45;24.77;;;4.40;99.90;;;;;;5007695;28;20438;-86
2021/04/19 01:40:32;;;;;;;46.03;26.33;;;4.30;99.90;;;;;;5002597;28;20516;-83
2021/04/19 01:42:59;;;;;;;41.05;24.00;;;4.30;99.90;;;;;;5005091;28;20132;-86
2021/04/19 01:45:28;;;;;;;39.83;25.17;;;4.30;99.90;;;;;;5003658;28;20146;-84
2021/04/19 01:47:58;;;;;;;38.60;23.98;;;4.40;99.90;;;;;;5006351;28;20056;-84
2021/04/19 01:50:27;;;;;;;39.95;23.35;;;4.40;99.90;;;;;;5005375;28;20065;-86
2021/04/19 01:52:56;;;;;;;37.50;24.02;;;4.40;99.90;;;;;;5004936;28;20112;-84
2021/04/19 01:55:26;;;;;;;38.58;24.27;;;4.40;99.90;;;;;;5010483;28;20050;-85
2021/04/19 01:58:11;;;;;;;40.65;24.13;;;4.40;99.90;;;;;;5011211;28;20121;-84
2021/04/19 02:00:41;;;;;;;40.08;23.45;;;4.40;99.90;;;;;;5007053;28;20555;-84
2021/04/19 02:03:24;;;;;;;39.28;24.55;;;4.40;99.90;;;;;;5011160;28;20424;-85
2021/04/19 02:06:01;;;;;;;41.38;24.67;;;4.40;99.90;;;;;;5009889;28;20050;-84
2021/04/19 02:08:46;;;;;;;42.97;26.50;;;4.40;99.90;;;;;;5001861;28;20444;-85
2021/04/19 02:11:34;;;;;;;40.83;24.48;;;4.40;99.90;;;;;;5004875;28;20134;-85
2021/04/19 02:14:18;;;;;;;40.63;25.10;;;4.50;99.90;;;;;;5010208;28;20121;-84
2021/04/19 02:17:11;;;;;;;38.83;24.77;;;4.50;99.90;;;;;;5008820;28;20140;-86
2021/04/19 02:19:41;;;;;;;38.67;25.10;;;4.50;99.90;;;;;;5008779;28;20128;-85
2021/04/19 02:22:20;;;;;;;40.55;23.98;;;4.50;99.90;;;;;;5005806;28;20481;-85
2021/04/19 02:24:49;;;;;;;40.30;24.48;;;4.50;99.90;;;;;;5002069;28;20050;-85
2021/04/19 02:27:29;;;;;;;35.30;24.83;;;4.60;99.90;;;;;;5005497;28;20131;-85
2021/04/19 02:29:57;;;;;;;38.72;23.17;;;4.60;99.90;;;;;;5004299;28;20143;-85
2021/04/19 02:32:33;;;;;;;39.88;24.63;;;4.60;99.90;;;;;;5000393;28;20137;-85
2021/04/19 02:35:04;;;;;;;40.50;23.88;;;4.60;99.90;;;;;;5005073;28;20050;-85
2021/04/19 02:37:36;;;;;;;35.00;24.27;;;4.60;99.90;;;;;;5003791;28;20038;-84
2021/04/19 02:40:06;;;;;;;38.23;24.67;;;4.50;99.90;;;;;;5006373;28;20451;-85
2021/04/19 02:42:39;;;;;;;40.75;24.52;;;4.60;99.90;;;;;;5011433;28;20077;-85
2021/04/19 02:45:12;;;;;;;38.95;24.02;;;4.60;99.90;;;;;;5004782;28;20065;-85
2021/04/19 02:47:40;;;;;;;;;;;4.60;99.90;;;;;;5006621;28;20376;-85
2021/04/19 02:50:10;;;;;;;40.08;24.75;;;4.50;99.90;;;;;;5011346;28;19921;-86
2021/04/19 02:52:37;;;;;;;38.25;25.13;;;4.50;99.90;;;;;;5014040;28;20068;-85
2021/04/19 02:55:05;;;;;;;39.60;26.15;;;4.50;99.90;;;;;;5014230;28;20045;-86
2021/04/19 02:57:37;;;;;;;42.28;26.90;;;4.40;99.90;;;;;;5010466;28;20072;-86
2021/04/19 03:00:04;;;;;;;45.72;27.00;;;4.40;99.90;;;;;;5014587;28;20053;-86
2021/04/19 03:02:33;;;;;;;39.95;26.55;;;4.40;99.90;;;;;;5012897;28;20491;-85
2021/04/19 03:05:02;;;;;;;42.45;29.35;;;4.50;99.90;;;;;;5014747;28;20054;-85
2021/04/19 03:07:34;;;;;;;48.05;30.10;;;4.50;99.90;;;;;;5012408;28;20140;-85
2021/04/19 03:10:10;;;;;;;47.25;30.88;;;4.60;99.90;;;;;;5009388;28;20075;-83
2021/04/19 03:12:37;;;;;;;45.35;28.90;;;4.70;99.90;;;;;;5011516;28;20109;-84
2021/04/19 03:15:12;;;;;;;44.15;26.95;;;4.80;99.90;;;;;;5016179;28;20054;-85
2021/04/19 03:17:39;;;;;;;49.28;26.95;;;4.80;99.90;;;;;;5013122;28;20138;-85
2021/04/19 03:20:12;;;;;;;44.38;26.77;;;4.70;99.90;;;;;;5010453;28;20054;-86
2021/04/19 03:22:42;;;;;;;41.28;27.98;;;4.80;99.90;;;;;;5006330;28;20404;-85
2021/04/19 03:25:14;;;;;;;45.30;28.45;;;4.70;99.90;;;;;;5007737;28;20073;-85
2021/04/19 03:27:43;;;;;;;51.97;29.63;;;4.70;99.90;;;;;;5015178;28;20133;-85
2021/04/19 03:30:11;;;;;;;48.15;28.80;;;4.70;99.90;;;;;;5007899;28;20134;-86
2021/04/19 03:32:43;;;;;;;44.30;27.45;;;4.70;99.90;;;;;;5013423;28;20134;-85
2021/04/19 03:35:11;;;;;;;;;;;4.70;99.90;;;;;;5015880;28;20112;-85
2021/04/19 03:37:43;;;;;;;38.42;24.50;;;4.70;99.90;;;;;;5010520;28;19976;-85
2021/04/19 03:40:33;;;;;;;40.63;25.38;;;4.70;99.90;;;;;;5020120;28;20112;-85
2021/04/19 03:43:08;;;;;;;43.35;27.00;;;4.60;99.90;;;;;;5026836;28;20073;-85
2021/04/19 03:45:37;;;;;;;44.50;24.85;;;4.60;99.90;;;;;;5007619;28;20128;-85
2021/04/19 03:48:14;;;;;;;42.40;25.10;;;4.50;99.90;;;;;;5016854;28;20060;-85
2021/04/19 03:50:51;;;;;;;42.42;25.00;;;4.50;99.90;;;;;;5010813;28;20404;-85
2021/04/19 03:53:21;;;;;;;40.78;23.80;;;4.50;99.90;;;;;;5012373;28;20125;-86
2021/04/19 03:55:48;;;;;;;43.78;23.75;;;4.50;99.90;;;;;;5008292;28;20129;-85
2021/04/19 03:58:17;;;;;;;37.47;23.70;;;4.50;99.90;;;;;;5007845;28;20046;-85
2021/04/19 04:00:46;;;;;;;40.10;24.10;;;4.50;99.90;;;;;;5012526;28;20073;-86
2021/04/19 04:03:17;;;;;;;38.10;22.13;;;4.40;99.90;;;;;;5012154;28;21019;-85
2021/04/19 04:05:47;;;;;;;40.42;23.55;;;4.40;99.90;;;;;;5011897;28;20053;-85
2021/04/19 04:08:15;;;;;;;34.70;23.75;;;4.40;99.90;;;;;;5013222;28;20136;-85
2021/04/19 04:10:44;;;;;;;29.95;21.52;;;4.40;99.90;;;;;;5002257;28;20042;-85
2021/04/19 04:13:11;;;;;;;36.25;23.42;;;4.40;99.90;;;;;;5015275;28;20140;-85
2021/04/19 04:15:52;;;;;;;41.47;23.30;;;4.30;99.90;;;;;;5012454;28;20121;-85
2021/04/19 04:18:19;;;;;;;36.38;23.13;;;4.30;99.90;;;;;;5008413;28;20061;-84
2021/04/19 04:20:47;;;;;;;37.78;23.60;;;4.30;99.90;;;;;;5012292;28;20045;-85
2021/04/19 04:23:15;;;;;;;40.90;23.42;;;4.30;99.90;;;;;;5012382;28;20470;-84
2021/04/19 04:25:41;;;;;;;36.42;23.40;;;4.20;99.90;;;;;;5011762;28;20110;-84
2021/04/19 04:28:08;;;;;;;37.85;22.55;;;4.20;99.90;;;;;;5007220;28;20050;-84
2021/04/19 04:30:35;;;;;;;42.28;23.05;;;4.20;99.90;;;;;;5012180;28;20050;-85
2021/04/19 04:33:03;;;;;;;35.28;22.73;;;4.20;99.90;;;;;;5013697;28;20112;-85
2021/04/19 04:35:31;;;;;;;36.50;22.58;;;4.20;99.90;;;;;;5004991;28;20041;-85
2021/04/19 04:37:58;;;;;;;37.17;23.27;;;4.20;99.90;;;;;;4997051;28;20042;-85
2021/04/19 04:40:26;;;;;;;40.60;23.60;;;4.20;99.90;;;;;;5013309;28;20167;-84
2021/04/19 04:43:17;;;;;;;38.08;22.45;;;4.20;99.90;;;;;;5011368;28;20069;-85
2021/04/19 04:45:44;;;;;;;42.88;22.42;;;4.20;99.90;;;;;;5010218;28;20073;-84
2021/04/19 04:48:28;;;;;;;41.83;23.17;;;4.10;99.90;;;;;;5006700;28;20178;-85
2021/04/19 04:51:03;;;;;;;40.33;22.35;;;4.10;99.90;;;;;;5014527;28;20049;-85
2021/04/19 04:53:51;;;;;;;44.17;24.45;;;4.10;99.90;;;;;;5008324;28;20078;-85
2021/04/19 04:56:23;;;;;;;43.67;23.85;;;4.20;99.90;;;;;;5011722;28;20141;-85
2021/04/19 04:58:55;;;;;;;39.47;23.00;;;4.20;99.90;;;;;;5014872;28;20068;-85
2021/04/19 05:01:23;;;;;;;40.13;23.47;;;4.30;99.90;;;;;;5006791;28;20081;-85
2021/04/19 05:03:50;;;;;;;36.42;22.83;;;4.40;99.90;;;;;;5013356;28;20305;-86
2021/04/19 05:06:19;;;;;;;35.67;23.02;;;4.40;99.90;;;;;;5009494;28;20257;-86
2021/04/19 05:08:47;;;;;;;39.97;23.50;;;4.40;99.90;;;;;;5008342;28;20135;-85
2021/04/19 05:11:14;;;;;;;33.70;23.23;;;4.40;99.90;;;;;;5014431;28;20050;-85
2021/04/19 05:13:41;;;;;;;38.15;24.92;;;4.50;99.90;;;;;;5013355;28;20133;-85
2021/04/19 05:16:07;;;;;;;40.92;24.75;;;4.50;99.90;;;;;;5009380;28;20120;-84
2021/04/19 05:18:34;;;;;;;43.72;26.15;;;4.50;99.90;;;;;;5006694;28;20140;-83
2021/04/19 05:21:03;;;;;;;39.30;26.38;;;4.50;99.90;;;;;;5011943;28;20184;-82
2021/04/19 05:23:29;;;;;;;45.20;27.25;;;4.60;99.90;;;;;;5016557;28;20486;-86
2021/04/19 05:26:00;;;;;;;42.47;25.92;;;4.60;99.90;;;;;;5010094;28;20079;-86
2021/04/19 05:28:27;;;;;;;46.83;27.75;;;4.60;99.90;;;;;;5009424;28;20213;-85
2021/04/19 05:31:11;;;;;;;44.88;28.33;;;4.60;99.90;;;;;;5010348;28;20044;-88
2021/04/19 05:33:38;;;;;;;47.83;27.50;;;4.60;99.90;;;;;;5014239;28;20057;-86
2021/04/19 05:36:10;;;;;;;44.53;27.10;;;4.60;99.90;;;;;;5012030;28;20046;-87
2021/04/19 05:38:37;;;;;;;42.97;26.98;;;4.60;99.90;;;;;;5009406;28;20053;-86
2021/04/19 05:41:05;;;;;;;46.08;29.35;;;4.70;99.90;;;;;;5009659;28;20046;-86
2021/04/19 05:43:31;;;;;;;51.03;30.50;;;4.70;99.90;;;;;;5012593;28;20129;-87
2021/04/19 05:45:59;;;;;;;48.10;30.40;;;4.70;99.90;;;;;;5010144;28;20076;-87
2021/04/19 05:48:28;;;;;;;46.63;30.65;;;4.70;99.90;;;;;;5010589;28;20390;-87
2021/04/19 05:51:01;;;;;;;50.97;31.67;;;4.70;99.90;;;;;;5012588;28;20050;-87
2021/04/19 05:53:27;;;;;;;49.28;29.67;;;4.70;99.90;;;;;;5013269;28;20121;-87
2021/04/19 05:55:55;;;;;;;52.90;30.77;;;4.70;99.90;;;;;;5013516;28;20100;-88
2021/04/19 05:58:57;;;;;;;52.55;30.98;;;4.70;99.90;;;;;;5011037;28;20118;-88
2021/04/19 06:01:26;;;;;;;48.35;30.10;;;4.70;99.90;;;;;;5000142;28;20085;-87
2021/04/19 06:04:12;;;;;;;49.63;30.58;;;4.70;99.90;;;;;;5010535;28;20041;-87
2021/04/19 06:06:55;;;;;;;56.92;29.73;;;4.60;99.90;;;;;;5009067;28;20058;-88
2021/04/19 06:09:29;;;;;;;57.72;33.38;;;4.60;99.90;;;;;;5011981;28;20364;-88
2021/04/19 06:12:07;;;;;;;49.45;30.58;;;4.60;99.90;;;;;;5013011;28;20401;-84
2021/04/19 06:14:38;;;;;;;50.38;31.48;;;4.70;99.90;;;;;;5009828;28;20045;-83
2021/04/19 06:17:07;;;;;;;55.80;31.30;;;4.70;99.90;;;;;;5011233;28;20144;-83
2021/04/19 06:19:39;;;;;;;53.97;31.60;;;4.70;99.90;;;;;;5012584;28;20054;-82
2021/04/19 06:22:06;;;;;;;47.83;30.08;;;4.70;99.90;;;;;;5011562;28;20100;-83
2021/04/19 06:24:32;;;;;;;56.53;31.73;;;4.60;99.90;;;;;;5016203;28;20111;-83
2021/04/19 06:27:01;;;;;;;49.42;29.35;;;4.60;99.90;;;;;;5015798;28;20150;-82
2021/04/19 06:29:29;;;;;;;49.97;29.30;;;4.50;99.90;;;;;;5009024;28;20472;-82
2021/04/19 06:31:59;;;;;;;49.92;30.05;;;4.50;99.90;;;;;;5010295;28;20172;-82
2021/04/19 06:34:26;;;;;;;46.85;28.02;;;4.50;99.90;;;;;;5008898;28;20042;-83
2021/04/19 06:36:53;;;;;;;52.55;31.65;;;4.40;99.90;;;;;;5015898;28;20042;-83
2021/04/19 06:39:20;;;;;;;58.42;33.53;;;4.40;99.90;;;;;;5013782;28;20061;-82
2021/04/19 06:41:47;;;;;;;53.97;33.05;;;4.40;99.90;;;;;;5014892;28;20119;-83
2021/04/19 06:44:14;;;;;;;57.13;32.78;;;4.40;99.90;;;;;;4995251;28;20382;-86
2021/04/19 06:46:45;;;;;;;57.72;33.53;;;4.40;99.90;;;;;;5019016;28;20430;-85
2021/04/19 06:49:14;;;;;;;58.85;33.45;;;4.40;99.90;;;;;;5014032;28;20100;-84
2021/04/19 06:51:44;;;;;;;61.22;33.95;;;4.40;99.90;;;;;;5013876;28;20141;-84
2021/04/19 06:54:12;;;;;;;60.10;34.55;;;4.50;99.90;;;;;;4996920;28;20057;-83
2021/04/19 06:56:43;;;;;;;57.97;34.58;;;4.50;99.90;;;;;;5013706;28;20045;-83
2021/04/19 06:59:20;;;;;;;58.97;33.58;;;4.50;99.90;;;;;;5015267;28;20107;-83
2021/04/19 07:01:52;;;;;;;58.78;33.72;;;4.50;99.90;;;;;;5014592;28;20077;-83
2021/04/19 07:04:25;;;;;;;52.70;34.05;;;4.50;99.90;;;;;;5018336;28;20057;-81
2021/04/19 07:06:51;;;;;;;59.40;35.85;;;4.50;99.90;;;;;;5018174;28;20144;-81
2021/04/19 07:09:27;;;;;;;61.58;36.35;;;4.60;99.90;;;;;;5015976;28;20113;-83
2021/04/19 07:12:06;;;;;;;55.65;34.25;;;4.60;99.90;;;;;;5016087;28;20057;-84
2021/04/19 07:14:37;;;;;;;58.55;33.45;;;4.60;99.90;;;;;;5015160;28;20070;-83
2021/04/19 07:17:08;;;;;;;64.43;33.83;;;4.60;99.90;;;;;;5015117;28;20042;-82
2021/04/19 07:19:35;;;;;;;60.65;37.35;;;4.60;99.90;;;;;;5027895;28;20057;-82
2021/04/19 07:22:07;;;;;;;57.10;34.38;;;4.60;99.90;;;;;;5014811;28;20336;-82
2021/04/19 07:24:37;;;;;;;58.80;35.53;;;4.70;99.90;;;;;;5013489;28;20053;-83
2021/04/19 07:27:04;;;;;;;58.60;35.90;;;4.80;99.90;;;;;;5015443;28;20096;-82
2021/04/19 07:29:33;;;;;;;60.38;35.20;;;4.80;99.90;;;;;;5014061;28;20103;-82
2021/04/19 07:31:59;;;;;;;59.22;35.40;;;4.80;99.90;;;;;;5013891;28;20046;-82
2021/04/19 07:34:31;;;;;;;60.58;35.35;;;4.90;99.90;;;;;;5013416;28;20045;-82
2021/04/19 07:37:02;;;;;;;61.97;36.92;;;5.00;99.90;;;;;;5014576;28;20049;-82
2021/04/19 07:39:40;;;;;;;57.72;35.67;;;4.90;99.90;;;;;;5015069;28;20140;-82
2021/04/19 07:42:09;;;;;;;56.88;34.10;;;4.90;99.90;;;;;;5014154;28;20049;-82
2021/04/19 07:44:43;;;;;;;60.97;34.95;;;5.00;99.90;;;;;;5015205;28;20057;-83
2021/04/19 07:47:38;;;;;;;54.53;34.33;;;5.00;99.90;;;;;;5012875;28;20049;-82
2021/04/19 07:50:17;;;;;;;56.45;34.20;;;5.00;99.90;;;;;;5012099;28;20057;-82
2021/04/19 07:53:01;;;;;;;59.13;34.75;;;5.10;99.90;;;;;;5002837;28;20042;-83
2021/04/19 07:55:34;;;;;;;55.50;33.10;;;5.10;99.90;;;;;;5015297;28;20125;-83
2021/04/19 07:58:08;;;;;;;57.13;34.38;;;5.10;99.90;;;;;;5018617;28;20060;-84
2021/04/19 08:00:39;;;;;;;57.38;33.53;;;5.10;99.90;;;;;;5019451;28;20058;-84
2021/04/19 08:03:10;;;;;;;65.90;35.83;;;5.10;99.90;;;;;;5008564;28;20188;-83
2021/04/19 08:05:42;;;;;;;63.00;37.38;;;5.10;99.90;;;;;;5015675;28;20054;-85
2021/04/19 08:08:09;;;;;;;;;;;5.20;99.90;;;;;;5013452;28;20104;-82
2021/04/19 08:10:39;;;;;;;64.63;37.15;;;5.30;99.90;;;;;;5014324;28;19987;-82
2021/04/19 08:13:19;;;;;;;62.17;35.65;;;5.40;99.90;;;;;;5014130;28;20053;-83
2021/04/19 08:15:47;;;;;;;52.03;32.88;;;5.50;99.90;;;;;;5012389;28;20042;-83
2021/04/19 08:18:19;;;;;;;54.80;32.58;;;5.60;99.90;;;;;;5012823;28;20060;-83
2021/04/19 08:20:52;;;;;;;58.35;36.63;;;5.60;99.90;;;;;;5013556;28;20505;-83
2021/04/19 08:23:21;;;;;;;53.25;31.58;;;5.70;99.90;;;;;;5010455;28;20119;-83
2021/04/19 08:25:53;;;;;;;56.67;30.63;;;5.90;99.90;;;;;;5012972;28;20127;-84
2021/04/19 08:28:22;;;;;;;46.30;29.50;;;6.00;99.90;;;;;;5006005;28;20451;-84
2021/04/19 08:30:55;;;;;;;46.25;29.63;;;5.90;99.90;;;;;;5006826;28;20042;-83
2021/04/19 08:33:30;;;;;;;51.90;28.90;;;5.90;99.90;;;;;;5010560;28;20072;-83
2021/04/19 08:35:57;;;;;;;46.35;29.08;;;5.80;99.90;;;;;;5013438;28;20061;-83
2021/04/19 08:38:24;;;;;;;50.58;30.40;;;5.80;99.90;;;;;;5012002;28;20064;-83
2021/04/19 08:40:55;;;;;;;48.22;30.70;;;5.80;99.90;;;;;;5015340;28;20084;-83
2021/04/19 08:43:26;;;;;;;45.03;30.25;;;5.90;99.90;;;;;;5006078;28;20057;-86
2021/04/19 08:45:53;;;;;;;51.78;31.98;;;6.00;99.90;;;;;;5010507;28;20085;-85
2021/04/19 08:48:20;;;;;;;56.30;30.20;;;6.00;99.90;;;;;;5013692;28;20046;-85
2021/04/19 08:50:49;;;;;;;50.63;31.30;;;6.00;99.90;;;;;;5012938;28;20479;-86
2021/04/19 08:53:17;;;;;;;48.17;31.27;;;6.10;99.90;;;;;;5012060;28;20096;-83
2021/04/19 08:55:44;;;;;;;49.20;30.63;;;6.30;99.90;;;;;;5008406;28;20065;-84
2021/04/19 08:58:18;;;;;;;51.88;31.73;;;6.30;99.90;;;;;;5004466;28;20066;-83
2021/04/19 09:00:48;;;;;;;45.55;29.55;;;6.40;99.90;;;;;;5013601;28;20050;-83
2021/04/19 09:03:19;;;;;;;50.28;31.33;;;6.40;99.90;;;;;;5012539;28;20459;-83
2021/04/19 09:05:47;;;;;;;37.45;23.20;;;6.50;99.90;;;;;;5013309;28;20100;-83
2021/04/19 09:08:16;;;;;;;50.50;31.48;;;6.50;99.90;;;;;;5014103;28;20049;-84
2021/04/19 09:10:53;;;;;;;50.38;31.23;;;6.70;99.90;;;;;;5013140;28;20415;-83
2021/04/19 09:13:29;;;;;;;48.33;30.77;;;6.80;99.90;;;;;;5010099;28;20045;-83
2021/04/19 09:16:11;;;;;;;52.80;31.50;;;6.80;99.90;;;;;;5012776;28;20053;-84
2021/04/19 09:18:38;;;;;;;;;;;6.80;99.90;;;;;;5008189;28;20124;-84
2021/04/19 09:21:04;;;;;;;53.17;30.92;;;6.80;99.90;;;;;;5012909;28;20016;-84
2021/04/19 09:23:32;;;;;;;46.50;31.00;;;6.80;99.90;;;;;;5011053;28;20119;-84
2021/04/19 09:26:00;;;;;;;47.38;31.83;;;6.90;99.90;;;;;;5004618;28;20076;-84
2021/04/19 09:28:42;;;;;;;46.03;30.25;;;6.90;99.90;;;;;;5006478;28;20072;-84
2021/04/19 09:31:10;;;;;;;50.03;31.00;;;6.90;99.90;;;;;;5007904;28;20375;-84
2021/04/19 09:33:38;;;;;;;46.78;30.58;;;7.00;99.90;;;;;;5013062;28;20046;-86
2021/04/19 09:36:06;;;;;;;54.10;32.75;;;6.80;99.90;;;;;;5010361;28;20125;-85
2021/04/19 09:38:37;;;;;;;53.20;30.17;;;6.80;99.90;;;;;;5013734;28;20073;-86
2021/04/19 09:41:18;;;;;;;52.50;32.70;;;6.70;99.90;;;;;;5013491;28;20058;-85
2021/04/19 09:43:52;;;;;;;53.45;32.30;;;6.70;99.90;;;;;;5012322;28;20273;-86
2021/04/19 09:46:21;;;;;;;55.13;31.00;;;6.60;99.90;;;;;;5012075;28;20045;-86
2021/04/19 09:49:03;;;;;;;55.13;32.17;;;6.60;99.90;;;;;;5012195;28;20366;-85
2021/04/19 09:51:36;;;;;;;55.22;33.00;;;6.50;99.90;;;;;;5004993;28;20048;-85
2021/04/19 09:54:24;;;;;;;54.55;33.53;;;6.50;99.90;;;;;;4993043;28;20046;-85
2021/04/19 09:57:11;;;;;;;50.20;32.40;;;6.50;99.90;;;;;;4992480;28;20083;-86
2021/04/19 09:59:38;;;;;;;53.15;32.55;;;6.50;99.90;;;;;;4993811;28;20114;-85
2021/04/19 10:02:11;;;;;;;60.65;36.58;;;6.60;99.90;;;;;;4997459;28;20061;-85
2021/04/19 10:04:43;;;;;;;60.42;35.08;;;6.50;99.90;;;;;;4997605;28;20097;-86
2021/04/19 10:07:11;;;;;;;59.90;36.58;;;6.60;99.90;;;;;;4995139;28;20050;-85
2021/04/19 10:09:42;;;;;;;63.40;36.28;;;6.60;99.90;;;;;;4996450;28;20046;-84
2021/04/19 10:12:13;;;;;;;61.60;37.88;;;6.50;99.90;;;;;;4995138;28;20117;-84
2021/04/19 10:14:41;;;;;;;66.43;35.65;;;6.50;99.90;;;;;;4989188;28;20054;-85
2021/04/19 10:17:18;;;;;;;59.63;36.67;;;6.40;99.90;;;;;;4990419;28;20472;-85
2021/04/19 10:19:45;;;;;;;59.97;36.55;;;6.50;99.90;;;;;;4964107;28;20455;-85
2021/04/19 10:22:13;;;;;;;58.78;36.28;;;6.50;99.90;;;;;;4991360;28;20058;-85
2021/04/19 10:24:56;;;;;;;56.08;35.40;;;6.50;99.90;;;;;;4981089;28;20058;-84
2021/04/19 10:27:31;;;;;;;55.55;33.47;;;6.60;99.90;;;;;;5014517;28;20061;-83
2021/04/19 10:30:18;;;;;;;52.97;33.67;;;6.60;99.90;;;;;;5012855;28;20064;-85
2021/04/19 10:32:45;;;;;;;55.42;32.10;;;6.70;99.90;;;;;;5010015;28;20065;-85
2021/04/19 10:35:39;;;;;;;50.10;33.35;;;6.70;99.90;;;;;;5007471;28;20121;-86
2021/04/19 10:38:15;;;;;;;47.45;31.00;;;6.90;99.90;;;;;;5020088;28;20077;-86
2021/04/19 10:40:41;;;;;;;47.65;31.08;;;6.80;99.90;;;;;;5008981;28;20375;-86
2021/04/19 10:43:12;;;;;;;56.42;33.08;;;6.90;99.90;;;;;;5008957;28;20161;-86
2021/04/19 10:45:40;;;;;;;45.70;29.67;;;7.00;99.90;;;;;;5005121;28;20367;-86
2021/04/19 10:48:27;;;;;;;40.63;27.13;;;7.10;99.90;;;;;;5008510;28;20042;-86
2021/04/19 10:51:13;;;;;;;45.67;28.10;;;7.10;99.90;;;;;;5010315;28;20042;-87
2021/04/19 10:53:41;;;;;;;43.97;29.55;;;7.10;99.90;;;;;;4990563;28;20038;-86
2021/04/19 10:56:09;;;;;;;47.08;29.08;;;7.20;99.90;;;;;;5011282;28;20050;-87
2021/04/19 10:58:37;;;;;;;48.50;29.90;;;7.30;99.90;;;;;;5011687;28;20050;-87
2021/04/19 11:01:05;;;;;;;39.83;26.42;;;7.50;99.90;;;;;;5012561;28;20085;-86
2021/04/19 11:03:36;;;;;;;38.10;27.02;;;7.60;99.90;;;;;;5002509;28;20057;-86
2021/04/19 11:06:08;;;;;;;35.92;25.08;;;7.80;99.90;;;;;;5006664;28;20076;-85
2021/04/19 11:09:08;;;;;;;40.08;24.15;;;7.80;99.90;;;;;;5005776;28;20117;-86
2021/04/19 11:11:34;;;;;;;32.97;23.13;;;7.80;99.90;;;;;;5014404;28;20073;-86
2021/04/19 11:14:14;;;;;;;35.85;24.35;;;7.60;99.90;;;;;;5015677;28;20054;-85
2021/04/19 11:17:00;;;;;;;36.45;23.90;;;7.50;99.90;;;;;;5014669;28;20077;-86
2021/04/19 11:19:46;;;;;;;39.55;25.73;;;7.50;99.90;;;;;;5013585;28;20053;-85
2021/04/19 11:22:26;;;;;;;41.28;26.45;;;7.40;99.90;;;;;;5011979;28;20184;-86
2021/04/19 11:25:12;;;;;;;44.15;26.92;;;7.30;99.90;;;;;;5009308;28;20422;-86
2021/04/19 11:27:39;;;;;;;40.72;28.38;;;7.30;99.90;;;;;;5013843;28;20042;-86
2021/04/19 11:30:18;;;;;;;41.65;27.55;;;7.40;99.90;;;;;;5010880;28;20042;-86
2021/04/19 11:32:46;;;;;;;44.60;29.25;;;7.40;99.90;;;;;;5014219;28;20376;-86
2021/04/19 11:35:32;;;;;;;42.83;28.88;;;7.40;99.90;;;;;;5013441;28;20456;-87
2021/04/19 11:38:02;;;;;;;43.20;27.80;;;7.40;99.90;;;;;;5010479;28;20107;-86
2021/04/19 11:40:35;;;;;;;44.88;28.55;;;7.40;99.90;;;;;;5014836;28;20110;-86
2021/04/19 11:43:25;;;;;;;43.70;28.30;;;7.30;99.90;;;;;;5015512;28;20525;-85
2021/04/19 11:45:57;;;;;;;44.83;29.20;;;7.20;99.90;;;;;;5012804;28;20086;-85
2021/04/19 11:48:23;;;;;;;49.25;28.92;;;7.20;99.90;;;;;;5013635;28;20119;-86
2021/04/19 11:50:50;;;;;;;42.63;28.20;;;7.20;99.90;;;;;;5015745;28;20078;-86
2021/04/19 11:53:27;;;;;;;45.75;29.00;;;7.30;99.90;;;;;;5007362;28;20073;-85
2021/04/19 11:55:55;;;;;;;47.50;28.42;;;7.30;99.90;;;;;;5013496;28;20053;-85
2021/04/19 11:58:43;;;;;;;48.25;28.85;;;7.30;99.90;;;;;;5014592;28;20077;-85
2021/04/19 12:01:13;;;;;;;44.78;28.42;;;7.40;99.90;;;;;;5021910;28;20114;-84
2021/04/19 12:03:40;;;;;;;42.80;28.50;;;7.50;99.90;;;;;;5025317;28;20442;-85
2021/04/19 12:06:09;;;;;;;44.15;27.85;;;7.40;99.90;;;;;;5016842;28;20136;-85
2021/04/19 12:08:36;;;;;;;46.72;28.40;;;7.40;99.90;;;;;;5012308;28;20125;-84
2021/04/19 12:11:05;;;;;;;43.38;27.77;;;7.40;99.90;;;;;;5015225;28;20612;-84
2021/04/19 12:13:31;;;;;;;39.72;25.92;;;7.40;99.90;;;;;;5014953;28;20624;-84
2021/04/19 12:15:58;;;;;;;38.10;25.88;;;7.40;99.90;;;;;;5015196;28;20046;-84
2021/04/19 12:18:28;;;;;;;39.28;25.33;;;7.60;99.90;;;;;;5013242;28;20407;-84
2021/04/19 12:20:59;;;;;;;36.63;24.25;;;7.70;99.90;;;;;;5013574;28;20129;-84
2021/04/19 12:23:26;;;;;;;36.25;22.55;;;7.80;99.90;;;;;;5013627;28;20045;-84
2021/04/19 12:25:53;;;;;;;36.80;20.40;;;7.90;99.90;;;;;;5014329;28;20058;-84
2021/04/19 12:28:27;;;;;;;22.90;16.42;;;7.90;99.90;;;;;;5012883;28;20057;-84
2021/04/19 12:30:54;;;;;;;20.33;14.98;;;8.00;99.90;;;;;;5013259;28;20038;-84
2021/04/19 12:33:22;;;;;;;22.33;15.98;;;8.00;99.90;;;;;;5015135;28;20154;-84
2021/04/19 12:35:48;;;;;;;21.48;15.68;;;7.90;99.90;;;;;;5013378;28;20482;-84
2021/04/19 12:38:15;;;;;;;27.40;18.17;;;7.90;99.90;;;;;;5006782;28;20053;-84
2021/04/19 12:40:42;;;;;;;30.85;19.48;;;7.70;99.90;;;;;;5012767;28;20050;-83
2021/04/19 12:43:10;;;;;;;34.75;20.98;;;7.70;99.90;;;;;;5004299;28;20049;-84
2021/04/19 12:45:39;;;;;;;37.95;24.83;;;7.70;99.90;;;;;;5010762;28;20062;-84
2021/04/19 12:48:10;;;;;;;44.38;26.63;;;7.70;99.90;;;;;;5013296;28;20144;-84
2021/04/19 12:50:37;;;;;;;46.35;26.90;;;7.70;99.90;;;;;;5013706;28;20452;-84
2021/04/19 12:53:09;;;;;;;45.55;28.23;;;7.60;99.90;;;;;;5014179;28;20535;-84
2021/04/19 12:55:41;;;;;;;46.53;27.10;;;7.60;99.90;;;;;;5008643;28;20049;-85
2021/04/19 12:58:09;;;;;;;50.42;28.10;;;7.50;99.90;;;;;;5011523;28;20062;-86
2021/04/19 13:00:36;;;;;;;50.00;27.55;;;7.50;99.90;;;;;;5010757;28;20199;-85